createdAt,value
2022-11-15T00:00:53.510Z,5.97
2022-11-15T00:03:22.462Z,5.37
2022-11-15T00:05:49.761Z,6.27
2022-11-15T00:08:16.909Z,5.50
2022-11-15T00:10:44.114Z,4.30
2022-11-15T00:13:12.660Z,5.03
2022-11-15T00:15:40.448Z,3.87
2022-11-15T00:18:08.283Z,4.97
2022-11-15T00:20:35.729Z,6.93
2022-11-15T00:23:05.255Z,5.30
2022-11-15T00:25:32.891Z,6.23
2022-11-15T00:28:00.633Z,6.43
2022-11-15T00:30:28.471Z,5.50
2022-11-15T00:32:55.673Z,5.40
2022-11-15T00:35:23.055Z,5.30
2022-11-15T00:37:50.187Z,4.47
2022-11-15T00:40:17.375Z,5.43
2022-11-15T00:42:44.603Z,4.90
2022-11-15T00:45:11.932Z,5.10
2022-11-15T00:47:39.116Z,4.60
2022-11-15T00:50:06.575Z,6.67
2022-11-15T00:52:33.762Z,4.70
2022-11-15T00:55:01.101Z,4.93
2022-11-15T00:57:28.445Z,5.10
2022-11-15T00:59:55.612Z,5.03
2022-11-15T01:02:22.782Z,5.23
2022-11-15T01:04:49.799Z,6.20
2022-11-15T01:07:17.128Z,7.10
2022-11-15T01:09:44.308Z,5.10
2022-11-15T01:12:11.581Z,4.93
2022-11-15T01:14:38.857Z,4.93
2022-11-15T01:17:05.947Z,4.77
2022-11-15T01:19:33.229Z,5.07
2022-11-15T01:22:00.222Z,4.70
2022-11-15T01:24:28.273Z,4.57
2022-11-15T01:26:55.309Z,5.03
2022-11-15T01:29:22.569Z,5.13
2022-11-15T01:31:49.638Z,5.47
2022-11-15T01:34:16.837Z,4.47
2022-11-15T01:36:43.896Z,4.07
2022-11-15T01:39:10.896Z,5.33
2022-11-15T01:41:37.927Z,5.27
2022-11-15T01:44:39.040Z,3.63
2022-11-15T01:47:14.395Z,4.03
2022-11-15T01:49:44.842Z,4.47
2022-11-15T01:52:15.055Z,5.37
2022-11-15T01:54:42.287Z,4.83
2022-11-15T01:57:10.829Z,6.97
2022-11-15T01:59:39.460Z,9.93
2022-11-15T02:02:06.592Z,5.23
2022-11-15T02:04:35.180Z,3.80
2022-11-15T02:07:04.264Z,5.20
2022-11-15T02:09:31.482Z,5.77
2022-11-15T02:11:58.659Z,5.83
2022-11-15T02:14:25.867Z,3.67
2022-11-15T02:17:14.741Z,6.60
2022-11-15T02:20:12.384Z,4.33
2022-11-15T02:23:24.556Z,5.63
2022-11-15T02:26:21.501Z,5.83
2022-11-15T02:28:57.303Z,6.23
2022-11-15T02:31:55.257Z,4.37
2022-11-15T02:34:22.341Z,3.93
2022-11-15T02:37:17.561Z,4.20
2022-11-15T02:39:47.616Z,4.50
2022-11-15T02:42:50.959Z,5.40
2022-11-15T02:45:24.739Z,5.53
2022-11-15T02:47:52.060Z,3.80
2022-11-15T02:50:21.640Z,5.37
2022-11-15T02:52:50.077Z,4.07
2022-11-15T02:55:36.385Z,9.07
2022-11-15T02:58:27.080Z,3.93
2022-11-15T03:01:01.000Z,4.77
2022-11-15T03:03:53.959Z,5.50
2022-11-15T03:06:39.982Z,4.93
2022-11-15T03:09:12.875Z,4.87
2022-11-15T03:11:42.845Z,4.63
2022-11-15T03:14:34.079Z,4.40
2022-11-15T03:17:16.599Z,4.40
2022-11-15T03:19:47.840Z,5.20
2022-11-15T03:22:22.644Z,6.07
2022-11-15T03:24:54.727Z,6.53
2022-11-15T03:27:24.292Z,6.23
2022-11-15T03:30:02.123Z,10.57
2022-11-15T03:32:33.835Z,5.70
2022-11-15T03:35:15.676Z,6.50
2022-11-15T03:37:46.089Z,8.93
2022-11-15T03:40:13.227Z,7.20
2022-11-15T03:42:45.140Z,9.33
2022-11-15T03:45:24.710Z,6.57
2022-11-15T03:48:02.840Z,8.30
2022-11-15T03:50:29.817Z,8.73
2022-11-15T03:52:57.347Z,9.07
2022-11-15T03:55:24.534Z,5.23
2022-11-15T03:57:53.598Z,6.77
2022-11-15T04:00:20.748Z,5.63
2022-11-15T04:02:47.918Z,5.00
2022-11-15T04:05:15.193Z,6.13
2022-11-15T04:07:42.590Z,5.17
2022-11-15T04:10:13.383Z,10.27
2022-11-15T04:12:43.733Z,4.73
2022-11-15T04:15:16.224Z,11.13
2022-11-15T04:17:45.465Z,5.20
2022-11-15T04:20:36.919Z,4.67
2022-11-15T04:23:24.503Z,9.07
2022-11-15T04:25:52.567Z,4.63
2022-11-15T04:28:20.010Z,8.43
2022-11-15T04:30:47.165Z,8.20
2022-11-15T04:33:14.246Z,11.20
2022-11-15T04:35:41.345Z,6.17
2022-11-15T04:38:09.572Z,6.87
2022-11-15T04:40:37.534Z,9.67
2022-11-15T04:43:05.217Z,5.63
2022-11-15T04:45:32.401Z,5.47
2022-11-15T04:47:59.509Z,5.00
2022-11-15T04:50:26.648Z,6.10
2022-11-15T04:52:55.214Z,4.77
2022-11-15T04:55:22.736Z,6.23
2022-11-15T04:57:57.854Z,7.10
2022-11-15T05:00:25.002Z,7.90
2022-11-15T05:03:10.864Z,6.23
2022-11-15T05:05:38.160Z,15.97
2022-11-15T05:08:05.494Z,8.50
2022-11-15T05:10:32.585Z,6.33
2022-11-15T05:12:59.764Z,8.20
2022-11-15T05:15:26.919Z,8.57
2022-11-15T05:17:59.501Z,7.50
2022-11-15T05:20:26.621Z,6.27
2022-11-15T05:22:54.837Z,8.90
2022-11-15T05:25:22.260Z,6.07
2022-11-15T05:27:49.532Z,5.20
2022-11-15T05:30:17.334Z,6.63
2022-11-15T05:32:45.078Z,7.77
2022-11-15T05:35:15.136Z,6.00
2022-11-15T05:37:42.607Z,8.40
2022-11-15T05:40:10.031Z,5.53
2022-11-15T05:42:37.101Z,4.97
2022-11-15T05:45:05.286Z,5.77
2022-11-15T05:47:32.339Z,5.90
2022-11-15T05:49:59.753Z,12.97
2022-11-15T05:52:29.172Z,5.77
2022-11-15T05:54:56.819Z,12.70
2022-11-15T05:57:23.931Z,9.80
2022-11-15T05:59:51.069Z,10.67
2022-11-15T06:02:18.312Z,10.30
2022-11-15T06:04:45.488Z,11.43
2022-11-15T06:07:12.586Z,11.60
2022-11-15T06:09:39.790Z,11.47
2022-11-15T06:12:07.395Z,9.47
2022-11-15T06:14:34.596Z,7.50
2022-11-15T06:17:02.633Z,5.20
2022-11-15T06:19:33.989Z,5.90
2022-11-15T06:22:01.491Z,6.77
2022-11-15T06:24:28.614Z,16.90
2022-11-15T06:26:55.835Z,5.77
2022-11-15T06:29:23.171Z,8.13
2022-11-15T06:31:50.340Z,5.83
2022-11-15T06:34:17.565Z,5.80
2022-11-15T06:36:44.785Z,6.67
2022-11-15T06:39:12.089Z,10.67
2022-11-15T06:41:39.224Z,11.27
2022-11-15T06:44:06.461Z,6.10
2022-11-15T06:46:33.609Z,5.70
2022-11-15T06:49:04.020Z,7.00
2022-11-15T06:51:35.380Z,7.97
2022-11-15T06:54:02.737Z,17.87
2022-11-15T06:56:30.274Z,10.53
2022-11-15T06:58:57.455Z,7.53
2022-11-15T07:01:24.647Z,10.00
2022-11-15T07:03:51.823Z,8.97
2022-11-15T07:06:19.043Z,9.37
2022-11-15T07:08:46.772Z,7.77
2022-11-15T07:11:13.946Z,10.27
2022-11-15T07:13:41.054Z,13.40
2022-11-15T07:16:09.691Z,45.23
2022-11-15T07:18:37.428Z,46.67
2022-11-15T07:21:05.282Z,44.53
2022-11-15T07:23:33.368Z,41.90
2022-11-15T07:26:00.908Z,32.37
2022-11-15T07:28:28.532Z,30.30
2022-11-15T07:30:55.918Z,17.10
2022-11-15T07:33:23.328Z,10.60
2022-11-15T07:35:50.616Z,7.43
2022-11-15T07:38:20.660Z,9.77
2022-11-15T07:40:48.090Z,7.73
2022-11-15T07:43:15.348Z,18.17
2022-11-15T07:45:46.110Z,13.70
2022-11-15T07:48:13.511Z,7.97
2022-11-15T07:50:43.717Z,9.03
2022-11-15T07:53:11.494Z,23.53
2022-11-15T07:55:38.758Z,8.60
2022-11-15T07:58:07.028Z,10.47
2022-11-15T08:00:34.382Z,10.27
2022-11-15T08:03:05.769Z,9.53
2022-11-15T08:05:33.459Z,11.27
2022-11-15T08:08:00.854Z,16.27
2022-11-15T08:10:28.264Z,15.87
2022-11-15T08:13:06.097Z,15.97
2022-11-15T08:15:33.583Z,13.03
2022-11-15T08:18:09.894Z,9.47
2022-11-15T08:20:37.076Z,11.03
2022-11-15T08:23:05.187Z,9.87
2022-11-15T08:25:33.313Z,10.97
2022-11-15T08:28:02.383Z,11.03
2022-11-15T08:30:29.728Z,14.47
2022-11-15T08:32:58.536Z,21.73
2022-11-15T08:35:29.016Z,25.90
2022-11-15T08:37:56.680Z,13.97
2022-11-15T08:40:24.338Z,14.87
2022-11-15T08:42:51.577Z,14.67
2022-11-15T08:45:18.876Z,15.57
2022-11-15T08:47:51.062Z,10.90
2022-11-15T08:50:21.163Z,11.97
2022-11-15T08:52:49.334Z,11.40
2022-11-15T08:55:17.634Z,9.30
2022-11-15T08:57:45.254Z,9.03
2022-11-15T09:00:13.529Z,8.50
2022-11-15T09:02:41.012Z,7.33
2022-11-15T09:05:08.721Z,10.67
2022-11-15T09:07:36.978Z,8.63
2022-11-15T09:10:04.589Z,10.53
2022-11-15T09:12:31.873Z,8.50
2022-11-15T09:14:59.291Z,11.23
2022-11-15T09:17:26.417Z,15.77
2022-11-15T09:19:53.593Z,11.37
2022-11-15T09:22:20.634Z,11.10
2022-11-15T09:24:47.814Z,10.20
2022-11-15T09:27:14.981Z,13.17
2022-11-15T09:29:42.043Z,10.23
2022-11-15T09:32:09.361Z,12.50
2022-11-15T09:34:36.560Z,11.30
2022-11-15T09:37:03.795Z,12.40
2022-11-15T09:39:30.975Z,11.07
2022-11-15T09:42:10.597Z,14.07
2022-11-15T09:44:49.142Z,12.30
2022-11-15T09:47:53.626Z,10.30
2022-11-15T09:50:39.602Z,10.17
2022-11-15T09:53:10.238Z,10.93
2022-11-15T09:55:51.911Z,10.27
2022-11-15T09:58:36.233Z,9.03
2022-11-15T10:01:06.353Z,8.50
2022-11-15T10:03:37.572Z,10.70
2022-11-15T10:06:06.361Z,7.50
2022-11-15T10:08:42.006Z,8.60
2022-11-15T10:14:06.100Z,8.37
2022-11-15T10:17:02.430Z,11.30
2022-11-15T10:20:06.845Z,11.40
2022-11-15T10:22:40.941Z,9.40
2022-11-15T10:25:13.627Z,8.07
2022-11-15T10:27:42.320Z,6.70
2022-11-15T10:30:14.837Z,9.10
2022-11-15T10:32:42.973Z,5.30
2022-11-15T10:35:27.208Z,6.80
2022-11-15T10:38:07.203Z,5.40
2022-11-15T10:40:34.454Z,5.70
2022-11-15T10:43:15.967Z,6.37
2022-11-15T10:45:43.402Z,6.40
2022-11-15T10:48:13.353Z,8.00
2022-11-15T10:50:41.729Z,8.37
2022-11-15T10:53:29.325Z,5.73
2022-11-15T10:56:06.344Z,5.90
2022-11-15T10:58:38.158Z,6.23
2022-11-15T11:01:16.249Z,6.47
2022-11-15T11:03:44.882Z,6.03
2022-11-15T11:06:17.289Z,7.10
2022-11-15T11:09:02.535Z,7.37
2022-11-15T11:11:49.544Z,7.57
2022-11-15T11:14:32.631Z,8.67
2022-11-15T11:17:07.247Z,6.13
2022-11-15T11:19:55.909Z,8.07
2022-11-15T11:22:26.139Z,7.23
2022-11-15T11:24:56.012Z,7.70
2022-11-15T11:27:45.327Z,8.07
2022-11-15T11:30:17.550Z,8.10
2022-11-15T11:32:51.274Z,8.73
2022-11-15T11:35:47.027Z,8.03
2022-11-15T11:38:26.223Z,10.80
2022-11-15T11:41:09.768Z,9.07
2022-11-15T11:44:11.548Z,8.20
2022-11-15T11:46:47.529Z,9.00
2022-11-15T11:49:20.273Z,8.00
2022-11-15T11:52:08.538Z,8.77
2022-11-15T11:54:57.002Z,7.37
2022-11-15T11:57:52.546Z,8.37
2022-11-15T12:00:23.800Z,9.83
2022-11-15T12:03:05.306Z,9.10
2022-11-15T12:05:38.802Z,9.13
2022-11-15T12:08:46.972Z,13.63
2022-11-15T12:11:38.760Z,8.33
2022-11-15T12:14:11.397Z,8.27
2022-11-15T12:16:38.900Z,8.40
2022-11-15T12:19:06.306Z,9.03
2022-11-15T12:22:07.220Z,8.20
2022-11-15T12:25:05.145Z,10.00
2022-11-15T12:27:39.722Z,7.50
2022-11-15T12:30:15.348Z,10.27
2022-11-15T12:32:58.443Z,8.27
2022-11-15T12:35:36.534Z,13.30
2022-11-15T12:38:03.732Z,9.33
2022-11-15T12:40:38.513Z,9.63
2022-11-15T12:43:14.763Z,10.63
2022-11-15T12:45:43.514Z,7.57
2022-11-15T12:48:19.692Z,9.80
2022-11-15T12:50:55.544Z,8.60
2022-11-15T12:53:32.612Z,8.47
2022-11-15T12:56:17.624Z,11.43
2022-11-15T12:58:55.062Z,7.53
2022-11-15T13:01:34.433Z,9.73
2022-11-15T13:04:27.327Z,7.80
2022-11-15T13:07:07.837Z,10.37
2022-11-15T13:09:37.856Z,11.53
2022-11-15T13:12:09.180Z,9.53
2022-11-15T13:14:41.848Z,7.23
2022-11-15T13:17:23.941Z,9.67
2022-11-15T13:19:57.097Z,8.57
2022-11-15T13:22:42.459Z,10.87
2022-11-15T13:25:24.578Z,7.70
2022-11-15T13:27:52.014Z,8.60
2022-11-15T13:30:24.551Z,7.50
2022-11-15T13:32:51.810Z,11.23
2022-11-15T13:35:26.886Z,13.03
2022-11-15T13:37:54.975Z,12.00
2022-11-15T13:40:25.144Z,7.53
2022-11-15T13:42:52.557Z,8.53
2022-11-15T13:45:20.003Z,7.57
2022-11-15T13:47:56.143Z,7.57
2022-11-15T13:50:32.336Z,8.60
2022-11-15T13:53:00.915Z,8.60
2022-11-15T13:55:28.230Z,9.47
2022-11-15T13:58:09.020Z,9.40
2022-11-15T14:00:36.373Z,7.87
2022-11-15T14:03:29.012Z,7.50
2022-11-15T14:06:02.115Z,7.80
2022-11-15T14:08:29.290Z,11.63
2022-11-15T14:11:21.372Z,7.97
2022-11-15T14:14:06.385Z,8.37
2022-11-15T14:16:38.397Z,7.77
2022-11-15T14:19:06.692Z,7.53
2022-11-15T14:21:34.004Z,5.80
2022-11-15T14:24:18.100Z,9.67
2022-11-15T14:26:45.441Z,7.63
2022-11-15T14:29:33.738Z,8.57
2022-11-15T14:32:30.543Z,7.77
2022-11-15T14:34:59.434Z,8.67
2022-11-15T14:37:28.283Z,71.97
2022-11-15T14:39:55.798Z,81.03
2022-11-15T14:42:25.664Z,84.57
2022-11-15T14:44:52.889Z,88.53
2022-11-15T14:47:20.120Z,87.87
2022-11-15T14:49:47.426Z,87.57
2022-11-15T14:52:32.775Z,90.47
2022-11-15T14:55:00.756Z,94.30
2022-11-15T14:57:28.171Z,94.43
2022-11-15T14:59:55.324Z,96.00
2022-11-15T15:02:26.280Z,99.93
2022-11-15T15:04:53.584Z,96.77
2022-11-15T15:07:21.282Z,86.70
2022-11-15T15:09:48.638Z,94.93
2022-11-15T15:12:20.659Z,92.90
2022-11-15T15:14:48.913Z,88.80
2022-11-15T15:17:16.511Z,97.00
2022-11-15T15:19:43.855Z,98.63
2022-11-15T15:22:16.984Z,93.97
2022-11-15T15:24:45.124Z,95.70
2022-11-15T15:27:12.439Z,101.33
2022-11-15T15:29:39.656Z,89.17
2022-11-15T15:32:06.954Z,92.13
2022-11-15T15:34:35.277Z,92.50
2022-11-15T15:37:09.765Z,102.30
2022-11-15T15:39:37.257Z,87.07
2022-11-15T15:42:05.075Z,82.20
2022-11-15T15:44:32.533Z,82.27
2022-11-15T15:46:59.695Z,85.73
2022-11-15T15:49:26.937Z,87.90
2022-11-15T15:51:54.025Z,78.13
2022-11-15T15:54:21.213Z,72.77
2022-11-15T15:56:51.024Z,66.63
2022-11-15T15:59:22.245Z,70.43
2022-11-15T16:01:49.322Z,81.67
2022-11-15T16:04:16.389Z,80.60
2022-11-15T16:06:45.515Z,83.17
2022-11-15T16:09:16.396Z,73.50
2022-11-15T16:11:45.215Z,72.37
2022-11-15T16:14:12.616Z,70.67
2022-11-15T16:16:40.080Z,72.93
2022-11-15T16:19:07.392Z,67.50
2022-11-15T16:21:34.622Z,64.00
2022-11-15T16:24:02.795Z,58.93
2022-11-15T16:26:30.413Z,72.97
2022-11-15T16:28:57.709Z,63.03
2022-11-15T16:31:24.763Z,56.43
2022-11-15T16:33:51.978Z,64.23
2022-11-15T16:36:30.693Z,57.47
2022-11-15T16:38:58.782Z,60.30
2022-11-15T16:41:25.956Z,72.67
2022-11-15T16:43:53.189Z,75.37
2022-11-15T16:46:22.227Z,54.90
2022-11-15T16:48:49.690Z,67.90
2022-11-15T16:51:16.991Z,65.17
2022-11-15T16:53:44.191Z,96.90
2022-11-15T16:56:27.084Z,99.03
2022-11-15T16:58:55.201Z,90.53
2022-11-15T17:01:29.254Z,82.63
2022-11-15T17:03:56.589Z,25.70
2022-11-15T17:06:24.434Z,31.77
2022-11-15T17:08:51.723Z,25.07
2022-11-15T17:11:20.483Z,13.53
2022-11-15T17:13:48.808Z,8.27
2022-11-15T17:16:17.582Z,7.03
2022-11-15T17:18:47.703Z,7.83
2022-11-15T17:21:16.233Z,6.47
2022-11-15T17:23:43.627Z,10.50
2022-11-15T17:26:28.710Z,7.43
2022-11-15T17:29:01.577Z,6.80
2022-11-15T17:31:30.972Z,7.97
2022-11-15T17:33:58.222Z,13.90
2022-11-15T17:36:25.373Z,9.33
2022-11-15T17:38:57.958Z,7.03
2022-11-15T17:41:26.695Z,8.03
2022-11-15T17:43:54.082Z,8.40
2022-11-15T17:46:21.467Z,8.97
2022-11-15T17:48:48.924Z,7.40
2022-11-15T17:51:17.702Z,8.70
2022-11-15T17:53:46.370Z,9.37
2022-11-15T17:56:15.545Z,7.60
2022-11-15T17:58:42.890Z,7.30
2022-11-15T18:01:20.305Z,9.50
2022-11-15T18:03:47.711Z,7.37
2022-11-15T18:06:15.443Z,8.63
2022-11-15T18:08:43.758Z,8.83
2022-11-15T18:11:14.940Z,8.13
2022-11-15T18:13:49.502Z,7.93
2022-11-15T18:16:20.692Z,12.67
2022-11-15T18:18:47.945Z,8.27
2022-11-15T18:21:22.733Z,7.83
2022-11-15T18:23:52.834Z,9.10
2022-11-15T18:26:24.366Z,10.37
2022-11-15T18:28:55.470Z,8.40
2022-11-15T18:31:27.581Z,8.03
2022-11-15T18:33:54.845Z,9.80
2022-11-15T18:36:27.107Z,9.27
2022-11-15T18:39:04.524Z,9.00
2022-11-15T18:41:32.462Z,7.70
2022-11-15T18:44:00.926Z,8.73
2022-11-15T18:46:31.251Z,8.00
2022-11-15T18:48:59.924Z,9.30
2022-11-15T18:51:27.823Z,8.00
2022-11-15T18:53:56.181Z,10.50
2022-11-15T18:56:24.021Z,9.07
2022-11-15T18:58:54.259Z,8.80
2022-11-15T19:01:23.077Z,7.97
2022-11-15T19:03:51.622Z,9.00
2022-11-15T19:06:20.093Z,8.60
2022-11-15T19:08:49.012Z,9.60
2022-11-15T19:11:24.300Z,8.80
2022-11-15T19:13:57.834Z,7.93
2022-11-15T19:16:24.971Z,8.70
2022-11-15T19:18:59.505Z,10.33
2022-11-15T19:21:26.953Z,8.17
2022-11-15T19:23:54.428Z,8.07
2022-11-15T19:26:23.277Z,9.60
2022-11-15T19:28:54.830Z,7.43
2022-11-15T19:31:22.292Z,8.47
2022-11-15T19:33:49.708Z,9.73
2022-11-15T19:36:19.282Z,8.93
2022-11-15T19:38:46.296Z,8.40
2022-11-15T19:41:16.363Z,8.90
2022-11-15T19:43:43.841Z,10.87
2022-11-15T19:46:12.075Z,10.27
2022-11-15T19:48:39.317Z,10.60
2022-11-15T19:51:08.593Z,10.70
2022-11-15T19:53:36.062Z,8.90
2022-11-15T19:56:05.060Z,9.80
2022-11-15T19:58:32.439Z,9.67
2022-11-15T20:01:05.908Z,9.00
2022-11-15T20:03:34.344Z,11.17
2022-11-15T20:06:13.053Z,11.83
2022-11-15T20:08:40.275Z,9.83
2022-11-15T20:11:07.293Z,9.13
2022-11-15T20:13:34.646Z,9.73
2022-11-15T20:16:01.717Z,10.03
2022-11-15T20:18:29.062Z,9.20
2022-11-15T20:20:59.822Z,9.23
2022-11-15T20:23:27.360Z,9.47
2022-11-15T20:25:54.490Z,9.83
2022-11-15T20:28:26.360Z,8.17
2022-11-15T20:30:55.470Z,8.50
2022-11-15T20:33:22.758Z,8.60
2022-11-15T20:35:50.160Z,8.30
2022-11-15T20:38:17.480Z,9.97
2022-11-15T20:40:48.421Z,9.03
2022-11-15T20:43:17.621Z,9.00
2022-11-15T20:45:45.763Z,8.93
2022-11-15T20:48:16.195Z,9.83
2022-11-15T20:50:44.861Z,12.67
2022-11-15T20:53:14.559Z,10.37
2022-11-15T20:55:42.779Z,14.20
2022-11-15T20:58:10.403Z,10.17
2022-11-15T21:00:37.884Z,9.43
2022-11-15T21:03:08.445Z,8.53
2022-11-15T21:05:38.109Z,9.37
2022-11-15T21:08:05.443Z,8.90
2022-11-15T21:10:51.239Z,10.07
2022-11-15T21:13:18.453Z,8.10
2022-11-15T21:15:45.754Z,9.03
2022-11-15T21:18:13.019Z,8.87
2022-11-15T21:20:40.049Z,16.53
2022-11-15T21:23:07.173Z,9.80
2022-11-15T21:25:34.529Z,8.67
2022-11-15T21:28:01.720Z,9.83
2022-11-15T21:30:28.853Z,10.53
2022-11-15T21:32:56.068Z,8.97
2022-11-15T21:35:23.976Z,8.90
2022-11-15T21:37:56.420Z,8.97
2022-11-15T21:40:24.767Z,9.77
2022-11-15T21:42:51.877Z,8.73
2022-11-15T21:45:18.923Z,9.40
2022-11-15T21:47:46.739Z,7.43
2022-11-15T21:50:14.333Z,8.40
2022-11-15T21:52:41.386Z,7.90
2022-11-15T21:55:09.069Z,8.80
2022-11-15T21:57:36.046Z,9.33
2022-11-15T22:00:21.746Z,8.83
2022-11-15T22:02:48.724Z,7.33
2022-11-15T22:05:15.855Z,8.70
2022-11-15T22:07:42.905Z,7.03
2022-11-15T22:10:10.053Z,7.90
2022-11-15T22:12:37.341Z,8.57
2022-11-15T22:15:04.819Z,6.10
2022-11-15T22:17:50.444Z,8.67
2022-11-15T22:20:43.120Z,13.77
2022-11-15T22:23:04.772Z,10.80
2022-11-15T22:25:31.890Z,11.37
2022-11-15T22:27:58.970Z,11.87
2022-11-15T22:30:26.064Z,12.30
2022-11-15T22:32:53.084Z,7.30
2022-11-15T22:35:20.164Z,7.60
2022-11-15T22:37:47.675Z,8.37
2022-11-15T22:40:14.979Z,8.87
2022-11-15T22:42:42.296Z,8.60
2022-11-15T22:45:09.781Z,10.30
2022-11-15T22:47:37.022Z,6.07
2022-11-15T22:50:05.773Z,7.03
2022-11-15T22:52:32.963Z,11.93
2022-11-15T22:55:00.220Z,13.17
2022-11-15T22:57:27.678Z,7.80
2022-11-15T22:59:54.911Z,6.17
2022-11-15T23:02:21.940Z,6.33
2022-11-15T23:04:49.365Z,5.07
2022-11-15T23:07:16.607Z,6.17
2022-11-15T23:09:47.761Z,7.00
2022-11-15T23:12:36.466Z,5.80
2022-11-15T23:15:03.851Z,7.93
2022-11-15T23:17:31.689Z,8.80
2022-11-15T23:20:11.179Z,11.83
2022-11-15T23:22:47.082Z,5.57
2022-11-15T23:25:14.211Z,6.33
2022-11-15T23:27:41.530Z,9.90
2022-11-15T23:30:27.721Z,8.00
2022-11-15T23:33:13.497Z,12.30
2022-11-15T23:35:40.780Z,12.40
2022-11-15T23:38:07.909Z,6.03
2022-11-15T23:40:34.940Z,11.90
2022-11-15T23:43:02.135Z,7.43
2022-11-15T23:45:29.551Z,9.20
2022-11-15T23:48:01.115Z,10.70
2022-11-15T23:50:28.727Z,11.10
2022-11-15T23:52:55.901Z,15.20
2022-11-15T23:55:23.273Z,9.63
2022-11-15T23:57:50.487Z,10.37
